sensor_id;sensor_type;location;lat;lon;timestamp;temperature;humidity
21331;DHT22;10824;51.632;4.950;2023-11-21T00:00:02;7.10;99.90
21331;DHT22;10824;51.632;4.950;2023-11-21T00:02:39;7.10;99.90
21331;DHT22;10824;51.632;4.950;2023-11-21T00:05:09;7.10;99.90
21331;DHT22;10824;51.632;4.950;2023-11-21T00:07:37;7.10;99.90
21331;DHT22;10824;51.632;4.950;2023-11-21T00:10:05;7.00;99.90
21331;DHT22;10824;51.632;4.950;2023-11-21T00:12:33;7.10;99.90
21331;DHT22;10824;51.632;4.950;2023-11-21T00:15:00;7.00;99.90
21331;DHT22;10824;51.632;4.950;2023-11-21T00:17:28;7.00;99.90
21331;DHT22;10824;51.632;4.950;2023-11-21T00:19:56;7.00;99.90
21331;DHT22;10824;51.632;4.950;2023-11-21T00:22:26;7.00;99.90
21331;DHT22;10824;51.632;4.950;2023-11-21T00:24:53;6.90;99.90
21331;DHT22;10824;51.632;4.950;2023-11-21T00:27:20;6.90;99.90
21331;DHT22;10824;51.632;4.950;2023-11-21T00:29:47;6.80;99.90
21331;DHT22;10824;51.632;4.950;2023-11-21T00:32:14;6.80;99.90
21331;DHT22;10824;51.632;4.950;2023-11-21T00:34:41;6.70;99.90
21331;DHT22;10824;51.632;4.950;2023-11-21T00:37:09;6.70;99.90
21331;DHT22;10824;51.632;4.950;2023-11-21T00:39:36;6.70;99.90
21331;DHT22;10824;51.632;4.950;2023-11-21T00:42:05;6.70;99.90
21331;DHT22;10824;51.632;4.950;2023-11-21T00:44:32;6.70;99.90
21331;DHT22;10824;51.632;4.950;2023-11-21T00:47:02;6.70;99.90
21331;DHT22;10824;51.632;4.950;2023-11-21T00:49:30;6.60;99.90
21331;DHT22;10824;51.632;4.950;2023-11-21T00:51:57;6.70;99.90
21331;DHT22;10824;51.632;4.950;2023-11-21T00:54:27;6.60;99.90
21331;DHT22;10824;51.632;4.950;2023-11-21T00:57:00;6.70;99.90
21331;DHT22;10824;51.632;4.950;2023-11-21T00:59:27;6.70;99.90
21331;DHT22;10824;51.632;4.950;2023-11-21T01:01:54;6.70;99.90
21331;DHT22;10824;51.632;4.950;2023-11-21T01:04:22;6.70;99.90
21331;DHT22;10824;51.632;4.950;2023-11-21T01:06:49;6.60;99.90
21331;DHT22;10824;51.632;4.950;2023-11-21T01:09:16;6.70;99.90
21331;DHT22;10824;51.632;4.950;2023-11-21T01:11:45;6.70;99.90
21331;DHT22;10824;51.632;4.950;2023-11-21T01:14:13;6.60;99.90
21331;DHT22;10824;51.632;4.950;2023-11-21T01:16:41;6.70;99.90
21331;DHT22;10824;51.632;4.950;2023-11-21T01:19:08;6.60;99.90
21331;DHT22;10824;51.632;4.950;2023-11-21T01:21:36;6.60;99.90
21331;DHT22;10824;51.632;4.950;2023-11-21T01:24:04;6.50;99.90
21331;DHT22;10824;51.632;4.950;2023-11-21T01:26:34;6.60;99.90
21331;DHT22;10824;51.632;4.950;2023-11-21T01:29:01;6.60;99.90
21331;DHT22;10824;51.632;4.950;2023-11-21T01:31:28;6.50;99.90
21331;DHT22;10824;51.632;4.950;2023-11-21T01:33:57;6.50;99.90
21331;DHT22;10824;51.632;4.950;2023-11-21T01:36:30;6.50;99.90
21331;DHT22;10824;51.632;4.950;2023-11-21T01:38:59;6.40;99.90
21331;DHT22;10824;51.632;4.950;2023-11-21T01:41:27;6.40;99.90
21331;DHT22;10824;51.632;4.950;2023-11-21T01:43:55;6.40;99.90
21331;DHT22;10824;51.632;4.950;2023-11-21T01:46:23;6.30;99.90
21331;DHT22;10824;51.632;4.950;2023-11-21T01:48:52;6.30;99.90
21331;DHT22;10824;51.632;4.950;2023-11-21T01:51:20;6.30;99.90
21331;DHT22;10824;51.632;4.950;2023-11-21T01:53:48;6.30;99.90
21331;DHT22;10824;51.632;4.950;2023-11-21T01:56:16;6.30;99.90
21331;DHT22;10824;51.632;4.950;2023-11-21T01:58:43;6.30;99.90
21331;DHT22;10824;51.632;4.950;2023-11-21T02:01:11;6.30;99.90
21331;DHT22;10824;51.632;4.950;2023-11-21T02:03:38;6.40;99.90
21331;DHT22;10824;51.632;4.950;2023-11-21T02:06:07;6.30;99.90
21331;DHT22;10824;51.632;4.950;2023-11-21T02:08:35;6.40;99.90
21331;DHT22;10824;51.632;4.950;2023-11-21T02:11:05;6.40;99.90
21331;DHT22;10824;51.632;4.950;2023-11-21T02:13:33;6.40;99.90
21331;DHT22;10824;51.632;4.950;2023-11-21T02:16:01;6.40;99.90
21331;DHT22;10824;51.632;4.950;2023-11-21T02:18:28;6.40;99.90
21331;DHT22;10824;51.632;4.950;2023-11-21T02:20:56;6.50;99.90
21331;DHT22;10824;51.632;4.950;2023-11-21T02:23:23;6.60;99.90
21331;DHT22;10824;51.632;4.950;2023-11-21T02:25:55;6.60;99.90
21331;DHT22;10824;51.632;4.950;2023-11-21T02:28:28;6.60;99.90
21331;DHT22;10824;51.632;4.950;2023-11-21T02:30:55;6.60;99.90
21331;DHT22;10824;51.632;4.950;2023-11-21T02:33:25;6.70;99.90
21331;DHT22;10824;51.632;4.950;2023-11-21T02:35:52;6.70;99.90
21331;DHT22;10824;51.632;4.950;2023-11-21T02:38:22;6.70;99.90
21331;DHT22;10824;51.632;4.950;2023-11-21T02:40:49;6.70;99.90
21331;DHT22;10824;51.632;4.950;2023-11-21T02:43:16;6.70;99.90
21331;DHT22;10824;51.632;4.950;2023-11-21T02:45:44;6.70;99.90
21331;DHT22;10824;51.632;4.950;2023-11-21T02:48:12;6.80;99.90
21331;DHT22;10824;51.632;4.950;2023-11-21T02:50:39;6.70;99.90
21331;DHT22;10824;51.632;4.950;2023-11-21T02:53:07;6.70;99.90
21331;DHT22;10824;51.632;4.950;2023-11-21T02:55:34;6.70;99.90
21331;DHT22;10824;51.632;4.950;2023-11-21T02:58:03;6.80;99.90
21331;DHT22;10824;51.632;4.950;2023-11-21T03:00:30;6.70;99.90
21331;DHT22;10824;51.632;4.950;2023-11-21T03:02:59;6.70;99.90
21331;DHT22;10824;51.632;4.950;2023-11-21T03:05:26;6.80;99.90
21331;DHT22;10824;51.632;4.950;2023-11-21T03:07:53;6.80;99.90
21331;DHT22;10824;51.632;4.950;2023-11-21T03:10:20;6.80;99.90
21331;DHT22;10824;51.632;4.950;2023-11-21T03:12:49;6.80;99.90
21331;DHT22;10824;51.632;4.950;2023-11-21T03:15:16;6.90;99.90
21331;DHT22;10824;51.632;4.950;2023-11-21T03:17:43;6.90;99.90
21331;DHT22;10824;51.632;4.950;2023-11-21T03:20:10;6.90;99.90
21331;DHT22;10824;51.632;4.950;2023-11-21T03:22:38;6.90;99.90
21331;DHT22;10824;51.632;4.950;2023-11-21T03:25:07;6.90;99.90
21331;DHT22;10824;51.632;4.950;2023-11-21T03:27:38;6.90;99.90
21331;DHT22;10824;51.632;4.950;2023-11-21T03:30:08;6.90;99.90
21331;DHT22;10824;51.632;4.950;2023-11-21T03:32:36;6.90;99.90
21331;DHT22;10824;51.632;4.950;2023-11-21T03:35:03;7.00;99.90
21331;DHT22;10824;51.632;4.950;2023-11-21T03:37:33;7.00;99.90
21331;DHT22;10824;51.632;4.950;2023-11-21T03:40:00;7.00;99.90
21331;DHT22;10824;51.632;4.950;2023-11-21T03:42:27;7.00;99.90
21331;DHT22;10824;51.632;4.950;2023-11-21T03:44:57;7.00;99.90
21331;DHT22;10824;51.632;4.950;2023-11-21T03:47:28;7.00;99.90
21331;DHT22;10824;51.632;4.950;2023-11-21T03:49:55;7.00;99.90
21331;DHT22;10824;51.632;4.950;2023-11-21T03:52:23;7.00;99.90
21331;DHT22;10824;51.632;4.950;2023-11-21T03:54:51;7.00;99.90
21331;DHT22;10824;51.632;4.950;2023-11-21T03:57:18;6.90;99.90
21331;DHT22;10824;51.632;4.950;2023-11-21T03:59:45;6.90;99.90
21331;DHT22;10824;51.632;4.950;2023-11-21T04:02:12;6.90;99.90
21331;DHT22;10824;51.632;4.950;2023-11-21T04:04:40;6.90;99.90
21331;DHT22;10824;51.632;4.950;2023-11-21T04:07:07;6.90;99.90
21331;DHT22;10824;51.632;4.950;2023-11-21T04:09:34;7.00;99.90
21331;DHT22;10824;51.632;4.950;2023-11-21T04:12:03;7.00;99.90
21331;DHT22;10824;51.632;4.950;2023-11-21T04:14:30;7.00;99.90
21331;DHT22;10824;51.632;4.950;2023-11-21T04:16:57;7.10;99.90
21331;DHT22;10824;51.632;4.950;2023-11-21T04:19:25;7.10;99.90
21331;DHT22;10824;51.632;4.950;2023-11-21T04:21:52;7.10;99.90
21331;DHT22;10824;51.632;4.950;2023-11-21T04:24:19;7.10;99.90
21331;DHT22;10824;51.632;4.950;2023-11-21T04:26:46;7.10;99.90
21331;DHT22;10824;51.632;4.950;2023-11-21T04:29:13;7.20;99.90
21331;DHT22;10824;51.632;4.950;2023-11-21T04:31:40;7.20;99.90
21331;DHT22;10824;51.632;4.950;2023-11-21T04:34:08;7.30;99.90
21331;DHT22;10824;51.632;4.950;2023-11-21T04:36:35;7.30;99.90
21331;DHT22;10824;51.632;4.950;2023-11-21T04:39:02;7.30;99.90
21331;DHT22;10824;51.632;4.950;2023-11-21T04:41:30;7.40;99.90
21331;DHT22;10824;51.632;4.950;2023-11-21T04:43:59;7.40;99.90
21331;DHT22;10824;51.632;4.950;2023-11-21T04:46:28;7.40;99.90
21331;DHT22;10824;51.632;4.950;2023-11-21T04:48:55;7.40;99.90
21331;DHT22;10824;51.632;4.950;2023-11-21T04:51:22;7.40;99.90
21331;DHT22;10824;51.632;4.950;2023-11-21T04:53:49;7.40;99.90
21331;DHT22;10824;51.632;4.950;2023-11-21T04:56:16;7.50;99.90
21331;DHT22;10824;51.632;4.950;2023-11-21T04:58:43;7.50;99.90
21331;DHT22;10824;51.632;4.950;2023-11-21T05:01:11;7.50;99.90
21331;DHT22;10824;51.632;4.950;2023-11-21T05:03:38;7.50;99.90
21331;DHT22;10824;51.632;4.950;2023-11-21T05:06:06;7.60;99.90
21331;DHT22;10824;51.632;4.950;2023-11-21T05:08:33;7.60;99.90
21331;DHT22;10824;51.632;4.950;2023-11-21T05:11:00;7.60;99.90
21331;DHT22;10824;51.632;4.950;2023-11-21T05:13:27;7.70;99.90
21331;DHT22;10824;51.632;4.950;2023-11-21T05:15:55;7.70;99.90
21331;DHT22;10824;51.632;4.950;2023-11-21T05:18:25;7.70;99.90
21331;DHT22;10824;51.632;4.950;2023-11-21T05:20:57;7.70;99.90
21331;DHT22;10824;51.632;4.950;2023-11-21T05:23:24;7.80;99.90
21331;DHT22;10824;51.632;4.950;2023-11-21T05:25:51;7.80;99.90
21331;DHT22;10824;51.632;4.950;2023-11-21T05:28:19;7.80;99.90
21331;DHT22;10824;51.632;4.950;2023-11-21T05:30:46;7.80;99.90
21331;DHT22;10824;51.632;4.950;2023-11-21T05:33:13;7.80;99.90
21331;DHT22;10824;51.632;4.950;2023-11-21T05:35:41;7.80;99.90
21331;DHT22;10824;51.632;4.950;2023-11-21T05:38:11;7.90;99.90
21331;DHT22;10824;51.632;4.950;2023-11-21T05:40:38;7.90;99.90
21331;DHT22;10824;51.632;4.950;2023-11-21T05:43:07;7.90;99.90
21331;DHT22;10824;51.632;4.950;2023-11-21T05:45:34;7.90;99.90
21331;DHT22;10824;51.632;4.950;2023-11-21T05:48:04;7.90;99.90
21331;DHT22;10824;51.632;4.950;2023-11-21T05:50:32;7.90;99.90
21331;DHT22;10824;51.632;4.950;2023-11-21T05:53:00;7.90;99.90
21331;DHT22;10824;51.632;4.950;2023-11-21T05:55:28;7.90;99.90
21331;DHT22;10824;51.632;4.950;2023-11-21T05:57:55;8.00;99.90
21331;DHT22;10824;51.632;4.950;2023-11-21T06:00:22;8.00;99.90
21331;DHT22;10824;51.632;4.950;2023-11-21T06:02:55;8.00;99.90
21331;DHT22;10824;51.632;4.950;2023-11-21T06:05:24;8.00;99.90
21331;DHT22;10824;51.632;4.950;2023-11-21T06:07:56;8.00;99.90
21331;DHT22;10824;51.632;4.950;2023-11-21T06:10:26;8.00;99.90
21331;DHT22;10824;51.632;4.950;2023-11-21T06:12:53;8.00;99.90
21331;DHT22;10824;51.632;4.950;2023-11-21T06:15:20;8.00;99.90
21331;DHT22;10824;51.632;4.950;2023-11-21T06:17:50;8.10;99.90
21331;DHT22;10824;51.632;4.950;2023-11-21T06:20:21;8.10;99.90
21331;DHT22;10824;51.632;4.950;2023-11-21T06:22:51;8.20;99.90
21331;DHT22;10824;51.632;4.950;2023-11-21T06:25:19;8.20;99.90
21331;DHT22;10824;51.632;4.950;2023-11-21T06:27:47;8.10;99.90
21331;DHT22;10824;51.632;4.950;2023-11-21T06:30:15;8.20;99.90
21331;DHT22;10824;51.632;4.950;2023-11-21T06:32:43;8.20;99.90
21331;DHT22;10824;51.632;4.950;2023-11-21T06:35:15;8.20;99.90
21331;DHT22;10824;51.632;4.950;2023-11-21T06:37:44;8.20;99.90
21331;DHT22;10824;51.632;4.950;2023-11-21T06:40:17;8.30;99.90
21331;DHT22;10824;51.632;4.950;2023-11-21T06:42:48;8.30;99.90
21331;DHT22;10824;51.632;4.950;2023-11-21T06:45:16;8.40;99.90
21331;DHT22;10824;51.632;4.950;2023-11-21T06:47:43;8.40;99.90
21331;DHT22;10824;51.632;4.950;2023-11-21T06:50:11;8.50;99.90
21331;DHT22;10824;51.632;4.950;2023-11-21T06:52:39;8.50;99.90
21331;DHT22;10824;51.632;4.950;2023-11-21T06:55:07;8.50;99.90
21331;DHT22;10824;51.632;4.950;2023-11-21T06:57:36;8.50;99.90
21331;DHT22;10824;51.632;4.950;2023-11-21T07:00:03;8.50;99.90
21331;DHT22;10824;51.632;4.950;2023-11-21T07:02:31;8.50;99.90
21331;DHT22;10824;51.632;4.950;2023-11-21T07:04:58;8.50;99.90
21331;DHT22;10824;51.632;4.950;2023-11-21T07:07:27;8.50;99.90
21331;DHT22;10824;51.632;4.950;2023-11-21T07:09:54;8.50;99.90
21331;DHT22;10824;51.632;4.950;2023-11-21T07:12:21;8.50;99.90
21331;DHT22;10824;51.632;4.950;2023-11-21T07:14:50;8.60;99.90
21331;DHT22;10824;51.632;4.950;2023-11-21T07:17:17;8.50;99.90
21331;DHT22;10824;51.632;4.950;2023-11-21T07:19:45;8.50;99.90
21331;DHT22;10824;51.632;4.950;2023-11-21T07:22:12;8.60;99.90
21331;DHT22;10824;51.632;4.950;2023-11-21T07:24:39;8.60;99.90
21331;DHT22;10824;51.632;4.950;2023-11-21T07:27:07;8.60;99.90
21331;DHT22;10824;51.632;4.950;2023-11-21T07:29:35;8.70;99.90
21331;DHT22;10824;51.632;4.950;2023-11-21T07:32:02;8.70;99.90
21331;DHT22;10824;51.632;4.950;2023-11-21T07:34:29;8.70;99.90
21331;DHT22;10824;51.632;4.950;2023-11-21T07:36:57;8.80;99.90
21331;DHT22;10824;51.632;4.950;2023-11-21T07:39:24;8.80;99.90
21331;DHT22;10824;51.632;4.950;2023-11-21T07:41:51;8.80;99.90
21331;DHT22;10824;51.632;4.950;2023-11-21T07:44:18;8.80;99.90
21331;DHT22;10824;51.632;4.950;2023-11-21T07:46:48;8.80;99.90
21331;DHT22;10824;51.632;4.950;2023-11-21T07:49:17;8.80;99.90
21331;DHT22;10824;51.632;4.950;2023-11-21T07:51:47;8.90;99.90
21331;DHT22;10824;51.632;4.950;2023-11-21T07:54:15;8.90;99.90
21331;DHT22;10824;51.632;4.950;2023-11-21T07:56:43;8.90;99.90
21331;DHT22;10824;51.632;4.950;2023-11-21T07:59:12;8.90;99.90
21331;DHT22;10824;51.632;4.950;2023-11-21T08:01:41;8.90;99.90
21331;DHT22;10824;51.632;4.950;2023-11-21T08:04:10;8.90;99.90
21331;DHT22;10824;51.632;4.950;2023-11-21T08:06:37;9.00;99.90
21331;DHT22;10824;51.632;4.950;2023-11-21T08:09:04;9.00;99.90
21331;DHT22;10824;51.632;4.950;2023-11-21T08:11:31;9.00;99.90
21331;DHT22;10824;51.632;4.950;2023-11-21T08:14:00;9.10;99.90
21331;DHT22;10824;51.632;4.950;2023-11-21T08:16:27;9.00;99.90
21331;DHT22;10824;51.632;4.950;2023-11-21T08:18:54;9.10;99.90
21331;DHT22;10824;51.632;4.950;2023-11-21T08:21:21;9.10;99.90
21331;DHT22;10824;51.632;4.950;2023-11-21T08:23:51;9.10;99.90
21331;DHT22;10824;51.632;4.950;2023-11-21T08:26:21;9.00;99.90
21331;DHT22;10824;51.632;4.950;2023-11-21T08:28:49;9.10;99.90
21331;DHT22;10824;51.632;4.950;2023-11-21T08:31:16;9.20;99.90
21331;DHT22;10824;51.632;4.950;2023-11-21T08:33:46;9.20;99.90
21331;DHT22;10824;51.632;4.950;2023-11-21T08:36:13;9.30;99.90
21331;DHT22;10824;51.632;4.950;2023-11-21T08:38:40;9.30;99.90
21331;DHT22;10824;51.632;4.950;2023-11-21T08:41:07;9.30;99.90
21331;DHT22;10824;51.632;4.950;2023-11-21T08:43:35;9.40;99.90
21331;DHT22;10824;51.632;4.950;2023-11-21T08:46:12;9.50;99.90
21331;DHT22;10824;51.632;4.950;2023-11-21T08:49:01;9.40;99.90
21331;DHT22;10824;51.632;4.950;2023-11-21T08:52:53;9.50;99.90
21331;DHT22;10824;51.632;4.950;2023-11-21T08:55:51;9.40;99.90
21331;DHT22;10824;51.632;4.950;2023-11-21T08:58:24;9.50;99.90
21331;DHT22;10824;51.632;4.950;2023-11-21T09:00:52;9.50;99.90
21331;DHT22;10824;51.632;4.950;2023-11-21T09:03:19;9.50;99.90
21331;DHT22;10824;51.632;4.950;2023-11-21T09:05:46;9.50;99.90
21331;DHT22;10824;51.632;4.950;2023-11-21T09:08:13;9.50;99.90
21331;DHT22;10824;51.632;4.950;2023-11-21T09:10:40;9.60;99.90
21331;DHT22;10824;51.632;4.950;2023-11-21T09:13:10;9.60;99.90
21331;DHT22;10824;51.632;4.950;2023-11-21T09:15:37;9.60;99.90
21331;DHT22;10824;51.632;4.950;2023-11-21T09:18:04;9.70;99.90
21331;DHT22;10824;51.632;4.950;2023-11-21T09:20:32;9.70;99.90
21331;DHT22;10824;51.632;4.950;2023-11-21T09:22:59;9.80;99.90
21331;DHT22;10824;51.632;4.950;2023-11-21T09:25:26;9.70;99.90
21331;DHT22;10824;51.632;4.950;2023-11-21T09:27:55;9.80;99.90
21331;DHT22;10824;51.632;4.950;2023-11-21T09:30:24;9.80;99.90
21331;DHT22;10824;51.632;4.950;2023-11-21T09:32:51;9.80;99.90
21331;DHT22;10824;51.632;4.950;2023-11-21T09:35:18;9.80;99.90
21331;DHT22;10824;51.632;4.950;2023-11-21T09:37:46;9.80;99.90
21331;DHT22;10824;51.632;4.950;2023-11-21T09:40:22;9.90;99.90
21331;DHT22;10824;51.632;4.950;2023-11-21T09:42:59;9.90;99.90
21331;DHT22;10824;51.632;4.950;2023-11-21T09:45:29;9.90;99.90
21331;DHT22;10824;51.632;4.950;2023-11-21T09:48:01;9.90;99.90
21331;DHT22;10824;51.632;4.950;2023-11-21T09:50:28;9.90;99.90
21331;DHT22;10824;51.632;4.950;2023-11-21T09:53:13;9.90;99.90
21331;DHT22;10824;51.632;4.950;2023-11-21T09:55:44;10.00;99.90
21331;DHT22;10824;51.632;4.950;2023-11-21T09:58:13;10.00;99.90
21331;DHT22;10824;51.632;4.950;2023-11-21T10:00:45;10.00;99.90
21331;DHT22;10824;51.632;4.950;2023-11-21T10:03:13;10.00;99.90
21331;DHT22;10824;51.632;4.950;2023-11-21T10:05:45;10.10;99.90
21331;DHT22;10824;51.632;4.950;2023-11-21T10:08:15;10.10;99.90
21331;DHT22;10824;51.632;4.950;2023-11-21T10:10:44;10.10;99.90
21331;DHT22;10824;51.632;4.950;2023-11-21T10:13:18;10.10;99.90
21331;DHT22;10824;51.632;4.950;2023-11-21T10:15:51;10.10;99.90
21331;DHT22;10824;51.632;4.950;2023-11-21T10:18:19;10.10;99.90
21331;DHT22;10824;51.632;4.950;2023-11-21T10:20:46;10.10;99.90
21331;DHT22;10824;51.632;4.950;2023-11-21T10:23:20;10.20;99.90
21331;DHT22;10824;51.632;4.950;2023-11-21T10:25:51;10.20;99.90
21331;DHT22;10824;51.632;4.950;2023-11-21T10:28:19;10.20;99.90
21331;DHT22;10824;51.632;4.950;2023-11-21T10:30:48;10.30;99.90
21331;DHT22;10824;51.632;4.950;2023-11-21T10:33:15;10.40;99.90
21331;DHT22;10824;51.632;4.950;2023-11-21T10:35:44;10.40;99.90
21331;DHT22;10824;51.632;4.950;2023-11-21T10:38:18;10.40;99.90
21331;DHT22;10824;51.632;4.950;2023-11-21T10:40:49;10.50;99.90
21331;DHT22;10824;51.632;4.950;2023-11-21T10:43:17;10.60;99.90
21331;DHT22;10824;51.632;4.950;2023-11-21T10:45:45;10.60;99.90
21331;DHT22;10824;51.632;4.950;2023-11-21T10:48:14;10.70;99.90
21331;DHT22;10824;51.632;4.950;2023-11-21T10:50:46;10.70;99.90
21331;DHT22;10824;51.632;4.950;2023-11-21T10:53:14;10.80;99.90
21331;DHT22;10824;51.632;4.950;2023-11-21T10:55:45;10.90;99.90
21331;DHT22;10824;51.632;4.950;2023-11-21T10:58:14;10.80;99.90
21331;DHT22;10824;51.632;4.950;2023-11-21T11:00:41;10.80;99.90
21331;DHT22;10824;51.632;4.950;2023-11-21T11:03:12;10.70;99.90
21331;DHT22;10824;51.632;4.950;2023-11-21T11:05:47;10.70;99.90
21331;DHT22;10824;51.632;4.950;2023-11-21T11:08:21;10.70;99.90
21331;DHT22;10824;51.632;4.950;2023-11-21T11:10:54;10.70;99.90
21331;DHT22;10824;51.632;4.950;2023-11-21T11:13:21;10.60;99.90
21331;DHT22;10824;51.632;4.950;2023-11-21T11:15:50;10.60;99.90
21331;DHT22;10824;51.632;4.950;2023-11-21T11:18:18;10.70;99.90
21331;DHT22;10824;51.632;4.950;2023-11-21T11:20:49;10.70;99.90
21331;DHT22;10824;51.632;4.950;2023-11-21T11:23:56;10.70;99.90
21331;DHT22;10824;51.632;4.950;2023-11-21T11:27:14;10.70;99.90
21331;DHT22;10824;51.632;4.950;2023-11-21T11:30:19;10.70;99.90
21331;DHT22;10824;51.632;4.950;2023-11-21T11:33:07;10.60;99.90
21331;DHT22;10824;51.632;4.950;2023-11-21T11:35:53;10.60;99.90
21331;DHT22;10824;51.632;4.950;2023-11-21T11:38:22;10.50;99.90
21331;DHT22;10824;51.632;4.950;2023-11-21T11:40:53;10.50;99.90
21331;DHT22;10824;51.632;4.950;2023-11-21T11:43:27;10.50;99.90
21331;DHT22;10824;51.632;4.950;2023-11-21T11:45:58;10.50;99.90
21331;DHT22;10824;51.632;4.950;2023-11-21T11:48:36;10.50;99.90
21331;DHT22;10824;51.632;4.950;2023-11-21T11:51:12;10.50;99.90
21331;DHT22;10824;51.632;4.950;2023-11-21T11:53:42;10.60;99.90
21331;DHT22;10824;51.632;4.950;2023-11-21T11:58:56;10.70;99.90
21331;DHT22;10824;51.632;4.950;2023-11-21T12:01:27;10.60;99.90
21331;DHT22;10824;51.632;4.950;2023-11-21T12:06:53;10.60;99.90
21331;DHT22;10824;51.632;4.950;2023-11-21T12:09:22;10.50;99.90
21331;DHT22;10824;51.632;4.950;2023-11-21T12:11:50;10.50;99.90
21331;DHT22;10824;51.632;4.950;2023-11-21T12:14:18;10.50;99.90
21331;DHT22;10824;51.632;4.950;2023-11-21T12:16:45;10.40;99.90
21331;DHT22;10824;51.632;4.950;2023-11-21T12:19:12;10.40;99.90
21331;DHT22;10824;51.632;4.950;2023-11-21T12:21:39;10.50;99.90
21331;DHT22;10824;51.632;4.950;2023-11-21T12:24:11;10.40;99.90
21331;DHT22;10824;51.632;4.950;2023-11-21T12:26:42;10.40;99.90
21331;DHT22;10824;51.632;4.950;2023-11-21T12:29:11;10.40;99.90
21331;DHT22;10824;51.632;4.950;2023-11-21T12:31:38;10.40;99.90
21331;DHT22;10824;51.632;4.950;2023-11-21T12:34:07;10.30;99.90
21331;DHT22;10824;51.632;4.950;2023-11-21T12:36:35;10.30;99.90
21331;DHT22;10824;51.632;4.950;2023-11-21T12:39:03;10.20;99.90
21331;DHT22;10824;51.632;4.950;2023-11-21T12:41:30;10.20;99.90
21331;DHT22;10824;51.632;4.950;2023-11-21T12:43:57;10.20;99.90
21331;DHT22;10824;51.632;4.950;2023-11-21T12:46:25;10.20;99.90
21331;DHT22;10824;51.632;4.950;2023-11-21T12:48:57;10.30;99.90
21331;DHT22;10824;51.632;4.950;2023-11-21T12:51:25;10.30;99.90
21331;DHT22;10824;51.632;4.950;2023-11-21T12:53:52;10.30;99.90
21331;DHT22;10824;51.632;4.950;2023-11-21T12:56:21;10.30;99.90
21331;DHT22;10824;51.632;4.950;2023-11-21T12:58:50;10.30;99.90
21331;DHT22;10824;51.632;4.950;2023-11-21T13:01:21;10.30;99.90
21331;DHT22;10824;51.632;4.950;2023-11-21T13:03:53;10.40;99.90
21331;DHT22;10824;51.632;4.950;2023-11-21T13:06:20;10.40;99.90
21331;DHT22;10824;51.632;4.950;2023-11-21T13:08:52;10.40;99.90
21331;DHT22;10824;51.632;4.950;2023-11-21T13:11:19;10.30;99.90
21331;DHT22;10824;51.632;4.950;2023-11-21T13:13:46;10.30;99.90
21331;DHT22;10824;51.632;4.950;2023-11-21T13:16:13;10.30;99.90
21331;DHT22;10824;51.632;4.950;2023-11-21T13:18:42;10.30;99.90
21331;DHT22;10824;51.632;4.950;2023-11-21T13:21:10;10.40;99.90
21331;DHT22;10824;51.632;4.950;2023-11-21T13:23:41;10.40;99.90
21331;DHT22;10824;51.632;4.950;2023-11-21T13:26:09;10.40;99.90
21331;DHT22;10824;51.632;4.950;2023-11-21T13:28:37;10.40;99.90
21331;DHT22;10824;51.632;4.950;2023-11-21T13:31:06;10.30;99.90
21331;DHT22;10824;51.632;4.950;2023-11-21T13:33:41;10.40;99.90
21331;DHT22;10824;51.632;4.950;2023-11-21T13:36:10;10.30;99.90
21331;DHT22;10824;51.632;4.950;2023-11-21T13:38:38;10.30;99.90
21331;DHT22;10824;51.632;4.950;2023-11-21T13:41:10;10.20;99.90
21331;DHT22;10824;51.632;4.950;2023-11-21T13:43:39;10.30;99.90
21331;DHT22;10824;51.632;4.950;2023-11-21T13:46:10;10.20;99.90
21331;DHT22;10824;51.632;4.950;2023-11-21T13:48:43;10.20;99.90
21331;DHT22;10824;51.632;4.950;2023-11-21T13:51:18;10.20;99.90
21331;DHT22;10824;51.632;4.950;2023-11-21T13:53:48;10.20;99.90
21331;DHT22;10824;51.632;4.950;2023-11-21T13:56:20;10.20;99.90
21331;DHT22;10824;51.632;4.950;2023-11-21T13:58:52;10.20;99.90
21331;DHT22;10824;51.632;4.950;2023-11-21T14:01:24;10.20;99.90
21331;DHT22;10824;51.632;4.950;2023-11-21T14:04:02;10.20;99.90
21331;DHT22;10824;51.632;4.950;2023-11-21T14:06:40;10.20;99.90
21331;DHT22;10824;51.632;4.950;2023-11-21T14:09:20;10.20;99.90
21331;DHT22;10824;51.632;4.950;2023-11-21T14:11:53;10.20;99.90
21331;DHT22;10824;51.632;4.950;2023-11-21T14:14:24;10.20;99.90
21331;DHT22;10824;51.632;4.950;2023-11-21T14:16:52;10.30;99.90
21331;DHT22;10824;51.632;4.950;2023-11-21T14:19:20;10.30;99.90
21331;DHT22;10824;51.632;4.950;2023-11-21T14:21:48;10.30;99.90
21331;DHT22;10824;51.632;4.950;2023-11-21T14:24:15;10.30;99.90
21331;DHT22;10824;51.632;4.950;2023-11-21T14:26:46;10.30;99.90
21331;DHT22;10824;51.632;4.950;2023-11-21T14:29:13;10.30;99.90
21331;DHT22;10824;51.632;4.950;2023-11-21T14:31:47;10.30;99.90
21331;DHT22;10824;51.632;4.950;2023-11-21T14:34:14;10.30;99.90
21331;DHT22;10824;51.632;4.950;2023-11-21T14:36:47;10.30;99.90
21331;DHT22;10824;51.632;4.950;2023-11-21T14:39:16;10.30;99.90
21331;DHT22;10824;51.632;4.950;2023-11-21T14:42:03;10.30;99.90
21331;DHT22;10824;51.632;4.950;2023-11-21T14:44:31;10.20;99.90
21331;DHT22;10824;51.632;4.950;2023-11-21T14:47:04;10.20;99.90
21331;DHT22;10824;51.632;4.950;2023-11-21T14:49:39;10.20;99.90
21331;DHT22;10824;51.632;4.950;2023-11-21T14:52:20;10.20;99.90
21331;DHT22;10824;51.632;4.950;2023-11-21T14:55:03;10.20;99.90
21331;DHT22;10824;51.632;4.950;2023-11-21T14:57:47;10.20;99.90
21331;DHT22;10824;51.632;4.950;2023-11-21T15:00:19;10.20;99.90
21331;DHT22;10824;51.632;4.950;2023-11-21T15:03:02;10.20;99.90
21331;DHT22;10824;51.632;4.950;2023-11-21T15:05:30;10.20;99.90
21331;DHT22;10824;51.632;4.950;2023-11-21T15:07:57;10.10;99.90
21331;DHT22;10824;51.632;4.950;2023-11-21T15:10:35;10.10;99.90
21331;DHT22;10824;51.632;4.950;2023-11-21T15:13:13;10.10;99.90
21331;DHT22;10824;51.632;4.950;2023-11-21T15:15:42;10.10;99.90
21331;DHT22;10824;51.632;4.950;2023-11-21T15:18:09;10.00;99.90
21331;DHT22;10824;51.632;4.950;2023-11-21T15:20:42;10.00;99.90
21331;DHT22;10824;51.632;4.950;2023-11-21T15:23:13;10.00;99.90
21331;DHT22;10824;51.632;4.950;2023-11-21T15:25:41;10.00;99.90
21331;DHT22;10824;51.632;4.950;2023-11-21T15:28:08;10.00;99.90
21331;DHT22;10824;51.632;4.950;2023-11-21T15:30:35;10.00;99.90
21331;DHT22;10824;51.632;4.950;2023-11-21T15:33:02;10.00;99.90
21331;DHT22;10824;51.632;4.950;2023-11-21T15:35:30;10.00;99.90
21331;DHT22;10824;51.632;4.950;2023-11-21T15:37:58;10.00;99.90
21331;DHT22;10824;51.632;4.950;2023-11-21T15:40:26;10.00;99.90
21331;DHT22;10824;51.632;4.950;2023-11-21T15:42:54;10.00;99.90
21331;DHT22;10824;51.632;4.950;2023-11-21T15:45:21;10.00;99.90
21331;DHT22;10824;51.632;4.950;2023-11-21T15:47:51;10.00;99.90
21331;DHT22;10824;51.632;4.950;2023-11-21T15:50:20;10.00;99.90
21331;DHT22;10824;51.632;4.950;2023-11-21T15:52:48;10.00;99.90
21331;DHT22;10824;51.632;4.950;2023-11-21T15:55:26;10.00;99.90
21331;DHT22;10824;51.632;4.950;2023-11-21T15:57:53;9.90;99.90
21331;DHT22;10824;51.632;4.950;2023-11-21T16:00:21;9.90;99.90